Time;durP1;ratioP1;P1;durP2;ratioP2;P2;SDS_P1;SDS_P2;PMS_P1;PMS_P2;Temp;Humidity;BMP_temperature;BMP_pressure;BME280_temperature;BME280_humidity;BME280_pressure;Samples;Min_cycle;Max_cycle;Signal;HPM_P1;HPM_P2
2022/06/20 00:01:09;;;;;;;12.68;7.30;;;24.40;99.90;;;;;;5015715;28;20173;-73
2022/06/20 00:03:39;;;;;;;14.55;7.65;;;24.30;99.90;;;;;;5015834;28;20201;-75
2022/06/20 00:06:05;;;;;;;9.35;7.18;;;24.30;99.90;;;;;;5035311;28;20663;-74
2022/06/20 00:08:31;;;;;;;12.90;8.30;;;24.30;99.90;;;;;;5015870;28;20185;-72
2022/06/20 00:10:57;;;;;;;11.93;7.80;;;24.30;99.90;;;;;;5015400;28;20260;-73
2022/06/20 00:13:24;;;;;;;14.63;7.85;;;24.30;99.90;;;;;;5014773;28;20300;-74
2022/06/20 00:15:52;;;;;;;12.93;8.00;;;24.30;99.90;;;;;;5015281;28;20201;-74
2022/06/20 00:18:18;;;;;;;13.35;7.75;;;24.30;99.90;;;;;;5015335;28;20248;-75
2022/06/20 00:20:44;;;;;;;10.95;7.45;;;24.30;99.90;;;;;;5019906;28;20573;-75
2022/06/20 00:23:10;;;;;;;13.10;7.72;;;24.20;99.90;;;;;;5020547;28;20224;-74
2022/06/20 00:25:37;;;;;;;8.02;6.97;;;24.20;99.90;;;;;;5015197;28;20260;-74
2022/06/20 00:28:04;;;;;;;13.27;8.13;;;24.10;99.90;;;;;;5015252;28;20527;-72
2022/06/20 00:30:30;;;;;;;12.20;8.65;;;24.10;99.90;;;;;;5015335;28;20215;-71
2022/06/20 00:32:55;;;;;;;14.25;8.05;;;24.10;99.90;;;;;;5014379;28;20236;-72
2022/06/20 00:35:21;;;;;;;12.70;8.20;;;24.10;99.90;;;;;;5013760;28;20232;-71
2022/06/20 00:37:48;;;;;;;14.32;8.05;;;24.10;99.90;;;;;;5015068;28;20700;-71
2022/06/20 00:40:43;;;;;;;12.85;9.05;;;24.20;99.90;;;;;;5018612;28;20173;-71
2022/06/20 00:43:21;;;;;;;15.07;8.95;;;24.10;99.90;;;;;;5033918;28;20283;-72
2022/06/20 00:45:49;;;;;;;14.27;8.20;;;24.10;99.90;;;;;;5034742;28;20243;-73
2022/06/20 00:48:34;;;;;;;13.65;8.23;;;24.00;99.90;;;;;;5025415;28;20272;-72
2022/06/20 00:51:08;;;;;;;13.88;8.77;;;24.00;99.90;;;;;;5014889;28;20181;-71
2022/06/20 00:53:46;;;;;;;14.05;8.85;;;24.00;99.90;;;;;;5013848;28;20289;-71
2022/06/20 00:56:15;;;;;;;11.45;7.97;;;23.90;99.90;;;;;;5014645;28;20268;-72
2022/06/20 00:59:05;;;;;;;12.57;8.32;;;23.90;99.90;;;;;;5014571;28;20193;-72
2022/06/20 01:01:36;;;;;;;14.68;8.05;;;23.80;99.90;;;;;;5014606;28;20579;-72
2022/06/20 01:04:08;;;;;;;13.73;8.63;;;23.80;99.90;;;;;;5014945;28;20264;-71
2022/06/20 01:06:40;;;;;;;11.50;7.72;;;23.80;99.90;;;;;;5029453;28;20241;-71
2022/06/20 01:09:10;;;;;;;11.55;9.00;;;23.70;99.90;;;;;;5025226;28;20197;-72
2022/06/20 01:11:41;;;;;;;15.18;8.52;;;23.70;99.90;;;;;;5014560;28;20532;-72
2022/06/20 01:14:19;;;;;;;14.35;8.25;;;23.60;99.90;;;;;;5014621;28;20539;-74
2022/06/20 01:16:45;;;;;;;14.48;8.85;;;23.50;99.90;;;;;;5014124;28;20326;-72
2022/06/20 01:19:36;;;;;;;15.38;8.85;;;23.50;99.90;;;;;;5032054;28;20267;-72
2022/06/20 01:22:11;;;;;;;13.32;8.85;;;23.50;99.90;;;;;;5019561;28;20213;-72
2022/06/20 01:24:51;;;;;;;15.55;8.55;;;23.40;99.90;;;;;;5013721;28;20172;-73
2022/06/20 01:27:32;;;;;;;12.80;8.07;;;23.30;99.90;;;;;;5014002;28;20178;-73
2022/06/20 01:29:58;;;;;;;15.63;9.32;;;23.30;99.90;;;;;;5013955;28;20189;-73
2022/06/20 01:32:24;;;;;;;11.25;7.88;;;23.30;99.90;;;;;;5013846;28;20208;-74
2022/06/20 01:34:50;;;;;;;12.38;8.88;;;23.20;99.90;;;;;;5014976;28;20311;-73
2022/06/20 01:37:26;;;;;;;15.65;8.48;;;23.20;99.90;;;;;;5013763;28;20201;-74
2022/06/20 01:39:56;;;;;;;13.27;8.75;;;23.10;99.90;;;;;;5013926;28;20190;-74
2022/06/20 01:42:23;;;;;;;13.52;8.90;;;23.10;99.90;;;;;;5011983;28;20198;-72
2022/06/20 01:48:11;;;;;;;13.85;8.00;;;23.00;99.90;;;;;;5015487;28;20678;-73
2022/06/20 01:50:39;;;;;;;12.43;8.07;;;22.90;99.90;;;;;;5033534;28;20176;-72
2022/06/20 01:53:07;;;;;;;17.83;8.82;;;22.80;99.90;;;;;;5033117;28;20201;-73
2022/06/20 01:55:35;;;;;;;13.68;8.18;;;22.80;99.90;;;;;;5018293;28;20232;-73
2022/06/20 01:58:46;;;;;;;13.10;8.65;;;22.80;99.90;;;;;;5013536;28;20188;-72
2022/06/20 02:01:14;;;;;;;10.30;8.45;;;22.70;99.90;;;;;;5008508;28;20197;-72
2022/06/20 02:03:43;;;;;;;12.57;8.98;;;22.70;99.90;;;;;;5016348;28;20195;-72
2022/06/20 02:06:10;;;;;;;11.85;8.82;;;22.60;99.90;;;;;;5012424;28;20173;-73
2022/06/20 02:08:39;;;;;;;12.02;8.10;;;22.60;99.90;;;;;;5013355;28;20657;-72
2022/06/20 02:11:12;;;;;;;9.77;7.70;;;22.60;99.90;;;;;;5013060;28;20212;-72
2022/06/20 02:13:42;;;;;;;13.60;8.88;;;22.60;99.90;;;;;;5012932;28;20275;-72
2022/06/20 02:16:11;;;;;;;12.23;8.95;;;22.50;99.90;;;;;;5012522;28;20207;-71
2022/06/20 02:18:41;;;;;;;18.10;9.93;;;22.50;99.90;;;;;;5023905;28;20176;-72
2022/06/20 02:21:14;;;;;;;14.80;9.70;;;22.40;99.90;;;;;;5047708;28;20198;-71
2022/06/20 02:23:48;;;;;;;16.60;9.95;;;22.40;99.90;;;;;;5031992;28;20621;-72
2022/06/20 02:26:15;;;;;;;16.80;9.65;;;22.40;99.90;;;;;;5044379;28;20179;-72
2022/06/20 02:28:50;;;;;;;9.80;8.73;;;22.40;99.90;;;;;;5033032;28;20173;-72
2022/06/20 02:31:17;;;;;;;13.68;8.77;;;22.40;99.90;;;;;;5013971;28;20227;-72
2022/06/20 02:33:44;;;;;;;11.20;8.85;;;22.30;99.90;;;;;;5031939;28;20204;-72
2022/06/20 02:36:09;;;;;;;20.13;9.38;;;22.30;99.90;;;;;;5024950;28;20197;-73
2022/06/20 02:38:36;;;;;;;10.98;8.85;;;22.30;99.90;;;;;;5012808;28;20648;-73
2022/06/20 02:41:02;;;;;;;16.85;10.60;;;22.40;99.90;;;;;;5012811;28;20235;-73
2022/06/20 02:43:30;;;;;;;14.32;9.10;;;22.30;99.90;;;;;;5012440;28;20322;-73
2022/06/20 02:45:57;;;;;;;9.63;8.07;;;22.30;99.90;;;;;;5013811;28;20182;-73
2022/06/20 02:48:25;;;;;;;11.68;9.02;;;22.30;99.90;;;;;;5012605;28;20267;-72
2022/06/20 02:50:57;;;;;;;11.40;8.80;;;22.30;99.90;;;;;;5012512;28;20628;-72
2022/06/20 02:53:32;;;;;;;11.05;9.13;;;22.20;99.90;;;;;;5011861;28;20288;-72
2022/06/20 02:55:58;;;;;;;10.82;9.02;;;22.20;99.90;;;;;;5012328;28;20240;-73
2022/06/20 02:58:29;;;;;;;14.32;9.07;;;22.20;99.90;;;;;;5012481;28;20185;-73
2022/06/20 03:01:38;;;;;;;12.23;8.50;;;22.20;99.90;;;;;;5022909;28;20176;-72
2022/06/20 03:04:06;;;;;;;12.88;9.40;;;22.20;99.90;;;;;;5023674;28;20204;-73
2022/06/20 03:06:33;;;;;;;12.48;9.25;;;22.20;99.90;;;;;;5012339;28;20634;-73
2022/06/20 03:08:59;;;;;;;10.27;8.40;;;22.20;99.90;;;;;;5010995;28;20184;-73
2022/06/20 03:11:28;;;;;;;11.35;9.05;;;22.30;99.90;;;;;;5011736;28;20181;-74
2022/06/20 03:13:56;;;;;;;10.98;8.32;;;22.20;99.90;;;;;;5011944;28;20616;-73
2022/06/20 03:16:22;;;;;;;14.25;8.30;;;22.20;99.90;;;;;;5011963;28;20238;-73
2022/06/20 03:18:50;;;;;;;15.15;9.80;;;22.20;99.90;;;;;;5012206;28;20216;-73
2022/06/20 03:21:25;;;;;;;13.68;8.27;;;22.10;99.90;;;;;;5010841;28;20565;-73
2022/06/20 03:23:51;;;;;;;12.77;9.77;;;22.00;99.90;;;;;;5011952;28;20663;-73
2022/06/20 03:26:22;;;;;;;11.73;8.93;;;21.90;99.90;;;;;;5012065;28;20181;-73
2022/06/20 03:28:48;;;;;;;9.65;8.43;;;21.90;99.90;;;;;;5019714;28;20191;-73
2022/06/20 03:31:14;;;;;;;11.32;8.55;;;21.90;99.90;;;;;;5015646;28;20205;-73
2022/06/20 03:33:40;;;;;;;12.02;8.60;;;22.00;99.90;;;;;;5011799;28;20189;-73
2022/06/20 03:36:14;;;;;;;15.35;9.07;;;22.10;99.90;;;;;;5011966;28;20570;-73
2022/06/20 03:38:43;;;;;;;14.05;8.90;;;22.20;99.90;;;;;;5011853;28;20195;-72
2022/06/20 03:41:11;;;;;;;15.25;9.20;;;22.30;99.90;;;;;;5011901;28;20542;-73
2022/06/20 03:43:39;;;;;;;13.52;8.50;;;22.40;99.90;;;;;;5020488;28;20200;-73
2022/06/20 03:46:23;;;;;;;9.63;8.68;;;22.60;99.90;;;;;;5030670;28;20188;-74
2022/06/20 03:49:02;;;;;;;15.40;8.75;;;22.80;99.90;;;;;;5020361;28;20184;-73
2022/06/20 03:51:40;;;;;;;11.90;9.23;;;23.10;99.90;;;;;;5021172;28;20193;-73
2022/06/20 03:54:35;;;;;;;14.13;8.98;;;23.30;99.90;;;;;;5026719;28;20651;-73
2022/06/20 03:57:01;;;;;;;15.15;8.95;;;23.60;99.90;;;;;;5020517;28;20334;-73
2022/06/20 03:59:56;;;;;;;15.27;8.80;;;23.80;99.90;;;;;;5033770;28;20264;-73
2022/06/20 04:02:39;;;;;;;13.18;7.63;;;24.00;99.90;;;;;;5018724;28;20223;-72
2022/06/20 04:05:15;;;;;;;15.18;8.75;;;24.10;99.90;;;;;;5009075;28;20192;-72
2022/06/20 04:08:11;;;;;;;13.55;8.48;;;24.20;99.90;;;;;;5005457;28;20174;-72
2022/06/20 04:10:59;;;;;;;17.58;9.18;;;24.10;99.90;;;;;;5004416;28;20344;-72
2022/06/20 04:13:36;;;;;;;16.23;9.90;;;23.90;99.90;;;;;;5008806;28;20246;-72
2022/06/20 04:16:24;;;;;;;17.33;9.10;;;23.70;99.90;;;;;;5015882;28;20262;-72
2022/06/20 04:19:06;;;;;;;16.23;9.65;;;23.30;99.90;;;;;;5017582;28;20179;-72
2022/06/20 04:21:41;;;;;;;14.70;9.95;;;22.90;99.90;;;;;;5026844;28;21453;-72
2022/06/20 04:24:31;;;;;;;17.83;10.05;;;22.70;99.90;;;;;;5022720;28;20181;-72
2022/06/20 04:27:23;;;;;;;12.95;9.55;;;22.60;99.90;;;;;;5018833;28;20189;-72
2022/06/20 04:30:02;;;;;;;16.45;10.15;;;22.50;99.90;;;;;;5019627;28;20181;-71
2022/06/20 04:32:37;;;;;;;18.30;11.10;;;22.50;99.90;;;;;;5022516;28;20259;-71
2022/06/20 04:35:20;;;;;;;16.50;11.40;;;22.40;99.90;;;;;;5025048;28;20180;-71
2022/06/20 04:38:17;;;;;;;16.55;11.02;;;22.40;99.90;;;;;;5025374;28;20168;-71
2022/06/20 04:40:42;;;;;;;22.63;12.50;;;22.40;99.90;;;;;;5020102;28;20181;-72
2022/06/20 04:43:14;;;;;;;19.17;12.70;;;22.40;99.90;;;;;;5026422;28;20197;-73
2022/06/20 04:46:08;;;;;;;23.85;13.68;;;22.20;99.90;;;;;;5018872;28;20189;-73
2022/06/20 04:48:34;;;;;;;19.42;15.27;;;21.90;99.90;;;;;;5020962;28;20195;-73
2022/06/20 04:51:02;;;;;;;18.02;14.57;;;21.90;99.90;;;;;;5022024;28;20192;-73
2022/06/20 04:53:35;;;;;;;23.15;15.90;;;21.80;99.90;;;;;;5022228;28;20251;-73
2022/06/20 04:56:04;;;;;;;21.48;17.05;;;21.60;99.90;;;;;;5022140;28;20196;-73
2022/06/20 04:58:42;;;;;;;21.98;16.20;;;21.60;99.90;;;;;;5025474;28;20314;-73
2022/06/20 05:01:08;;;;;;;23.10;16.58;;;21.60;99.90;;;;;;5027169;28;20178;-73
2022/06/20 05:03:39;;;;;;;19.98;17.23;;;21.50;99.90;;;;;;5021697;28;20732;-74
2022/06/20 05:06:08;;;;;;;24.05;17.92;;;21.50;99.90;;;;;;5029542;28;20671;-74
2022/06/20 05:08:44;;;;;;;20.38;15.52;;;21.70;99.90;;;;;;5027139;28;20197;-74
2022/06/20 05:11:37;;;;;;;20.23;17.05;;;21.60;99.90;;;;;;5022807;28;20172;-74
2022/06/20 05:14:20;;;;;;;18.35;15.55;;;21.60;99.90;;;;;;5025377;28;20961;-74
2022/06/20 05:16:50;;;;;;;21.10;16.70;;;21.70;99.90;;;;;;5037984;28;20200;-74
2022/06/20 05:19:23;;;;;;;18.65;16.75;;;21.60;99.90;;;;;;5027121;28;20267;-74
2022/06/20 05:21:53;;;;;;;22.70;15.70;;;21.50;99.90;;;;;;5022228;28;20175;-74
2022/06/20 05:24:23;;;;;;;16.80;13.32;;;21.40;99.90;;;;;;5043106;28;20181;-77
2022/06/20 05:26:52;;;;;;;21.40;14.02;;;21.30;99.90;;;;;;5034877;28;20180;-77
2022/06/20 05:29:31;;;;;;;18.65;13.75;;;21.30;99.90;;;;;;5035847;28;20180;-77
2022/06/20 05:32:02;;;;;;;20.35;14.98;;;21.30;99.90;;;;;;5026776;28;20656;-78
2022/06/20 05:34:58;;;;;;;15.95;14.25;;;21.20;99.90;;;;;;5012938;28;20563;-78
2022/06/20 05:37:42;;;;;;;21.70;15.15;;;21.30;99.90;;;;;;5018398;28;20212;-77
2022/06/20 05:40:23;;;;;;;15.63;14.02;;;21.40;99.90;;;;;;5020993;28;20648;-78
2022/06/20 05:42:49;;;;;;;17.65;14.25;;;21.70;99.90;;;;;;5027376;28;20200;-77
2022/06/20 05:45:21;;;;;;;18.60;16.80;;;21.70;99.90;;;;;;5034905;28;20165;-78
2022/06/20 05:47:52;;;;;;;23.95;19.40;;;22.00;99.90;;;;;;5034275;28;20263;-77
2022/06/20 05:50:26;;;;;;;17.58;15.27;;;22.20;99.90;;;;;;5033484;28;20189;-80
2022/06/20 05:52:52;;;;;;;22.45;18.27;;;22.10;99.90;;;;;;5028659;28;20189;-81
2022/06/20 05:55:25;;;;;;;18.83;16.40;;;22.40;99.90;;;;;;5029759;28;20315;-80
2022/06/20 05:57:55;;;;;;;18.67;15.00;;;22.60;99.90;;;;;;5023807;28;20265;-81
2022/06/20 06:00:34;;;;;;;19.52;17.48;;;22.80;99.90;;;;;;5020936;28;20268;-81
2022/06/20 06:03:24;;;;;;;17.38;15.18;;;23.20;99.90;;;;;;5027032;28;20330;-79
2022/06/20 06:06:00;;;;;;;18.10;15.15;;;23.50;99.90;;;;;;5026982;28;20195;-80
2022/06/20 06:08:45;;;;;;;19.85;14.23;;;23.80;99.90;;;;;;5024093;28;20166;-77
2022/06/20 06:11:44;;;;;;;17.58;14.25;;;23.90;99.90;;;;;;5023147;28;20187;-77
2022/06/20 06:14:21;;;;;;;16.85;13.25;;;24.10;99.90;;;;;;5021596;28;20187;-76
2022/06/20 06:16:54;;;;;;;19.13;12.18;;;24.40;99.90;;;;;;5017649;28;20705;-77
2022/06/20 06:19:52;;;;;;;13.05;10.35;;;24.70;99.90;;;;;;5034886;28;20176;-77
2022/06/20 06:22:22;;;;;;;15.75;10.48;;;25.00;99.90;;;;;;5025293;28;20219;-77
2022/06/20 06:24:56;;;;;;;15.52;10.60;;;25.20;99.90;;;;;;5032170;28;20180;-79
2022/06/20 06:27:30;;;;;;;16.10;9.73;;;25.40;99.90;;;;;;5029987;28;20248;-76
2022/06/20 06:30:14;;;;;;;16.38;9.98;;;25.60;99.90;;;;;;5025618;28;20193;-77
2022/06/20 06:32:51;;;;;;;11.23;7.97;;;25.60;99.90;;;;;;5029250;28;20203;-75
2022/06/20 06:35:34;;;;;;;15.40;8.55;;;25.70;99.90;;;;;;5039132;28;20647;-75
2022/06/20 06:38:29;;;;;;;12.60;8.00;;;25.70;99.90;;;;;;5037258;28;20180;-76
2022/06/20 06:40:56;;;;;;;10.32;8.02;;;25.70;99.90;;;;;;5040666;28;20197;-77
2022/06/20 06:43:37;;;;;;;8.32;7.53;;;25.90;99.90;;;;;;5026557;28;20223;-77
2022/06/20 06:46:07;;;;;;;10.32;7.60;;;26.10;99.90;;;;;;5021229;28;20240;-74
2022/06/20 06:48:46;;;;;;;10.88;6.55;;;26.30;99.90;;;;;;5025276;28;20184;-75
2022/06/20 06:51:25;;;;;;;9.20;6.65;;;26.40;99.90;;;;;;5031950;28;20190;-75
2022/06/20 06:54:00;;;;;;;9.68;6.97;;;26.50;99.90;;;;;;5024061;28;20262;-75
2022/06/20 06:56:29;;;;;;;10.88;7.28;;;26.50;99.90;;;;;;5023210;28;20218;-75
2022/06/20 06:59:12;;;;;;;10.25;6.38;;;26.60;99.90;;;;;;5021830;28;20181;-75
2022/06/20 07:01:46;;;;;;;9.95;5.75;;;26.70;99.90;;;;;;5018863;28;20203;-76
2022/06/20 07:04:31;;;;;;;8.02;5.70;;;26.80;99.90;;;;;;5015874;28;20185;-76
2022/06/20 07:06:59;;;;;;;7.80;5.65;;;26.90;99.90;;;;;;5012590;28;20183;-76
2022/06/20 07:09:33;;;;;;;7.85;5.40;;;27.10;99.90;;;;;;5011680;28;20216;-76
2022/06/20 07:12:25;;;;;;;10.98;5.80;;;27.10;99.90;;;;;;5012006;28;20203;-76
2022/06/20 07:15:23;;;;;;;8.80;5.68;;;27.30;99.90;;;;;;5044171;28;20187;-75
2022/06/20 07:17:59;;;;;;;8.60;5.82;;;27.50;99.90;;;;;;5023380;28;20463;-74
2022/06/20 07:20:39;;;;;;;9.20;5.60;;;27.60;99.90;;;;;;5040565;28;20245;-75
2022/06/20 07:23:11;;;;;;;11.45;5.82;;;27.80;99.90;;;;;;5027068;28;20196;-76
2022/06/20 07:25:41;;;;;;;7.57;5.53;;;28.10;99.30;;;;;;5025954;28;20177;-76
2022/06/20 07:28:19;;;;;;;7.57;5.15;;;28.40;98.90;;;;;;5013836;28;20191;-77
2022/06/20 07:30:52;;;;;;;10.07;5.15;;;28.50;97.40;;;;;;5026465;28;20199;-75
2022/06/20 07:33:42;;;;;;;10.27;5.28;;;28.70;97.30;;;;;;5030772;28;20211;-73
2022/06/20 07:36:10;;;;;;;6.07;4.90;;;29.20;95.00;;;;;;5025664;28;20200;-73
2022/06/20 07:38:39;;;;;;;11.02;5.20;;;29.70;94.00;;;;;;5039359;28;20647;-74
2022/06/20 07:41:07;;;;;;;7.25;5.00;;;29.80;92.20;;;;;;5030147;28;20187;-75
2022/06/20 07:43:40;;;;;;;6.65;4.68;;;29.90;90.30;;;;;;5029867;28;20214;-74
2022/06/20 07:46:21;;;;;;;5.80;3.33;;;29.70;89.30;;;;;;5012055;28;20208;-73
2022/06/20 07:48:50;;;;;;;7.22;4.55;;;29.60;88.70;;;;;;5028623;28;20195;-74
2022/06/20 07:51:20;;;;;;;8.35;4.60;;;29.50;90.60;;;;;;5031564;28;20169;-74
2022/06/20 07:53:55;;;;;;;7.05;4.82;;;29.70;89.70;;;;;;5014686;28;20205;-74
2022/06/20 07:56:45;;;;;;;7.38;4.20;;;30.10;90.80;;;;;;5011757;28;20287;-74
2022/06/20 07:59:50;;;;;;;8.73;4.25;;;30.40;88.00;;;;;;5001076;28;20188;-75
2022/06/20 08:02:39;;;;;;;8.18;4.82;;;30.80;84.80;;;;;;5011145;28;20263;-75
2022/06/20 08:05:06;;;;;;;5.38;3.90;;;30.90;84.90;;;;;;5014492;28;20252;-74
2022/06/20 08:07:47;;;;;;;6.20;4.00;;;30.90;82.30;;;;;;5014353;28;20177;-74
2022/06/20 08:10:47;;;;;;;6.05;4.00;;;31.10;82.90;;;;;;5015556;28;20617;-74
2022/06/20 08:13:21;;;;;;;7.03;4.72;;;31.00;80.50;;;;;;5014689;28;20196;-75
2022/06/20 08:15:59;;;;;;;8.43;4.03;;;30.80;81.30;;;;;;5022348;28;20203;-75
2022/06/20 08:18:25;;;;;;;7.72;4.28;;;30.60;83.60;;;;;;5028800;28;20550;-74
2022/06/20 08:20:59;;;;;;;9.05;4.38;;;30.70;85.70;;;;;;5015165;28;20193;-73
2022/06/20 08:23:38;;;;;;;9.82;4.32;;;31.10;82.60;;;;;;5015012;28;20189;-75
2022/06/20 08:26:09;;;;;;;7.43;4.45;;;31.60;78.20;;;;;;5015385;28;20176;-74
2022/06/20 08:28:48;;;;;;;4.65;3.10;;;31.70;76.40;;;;;;5024772;28;20493;-74
2022/06/20 08:31:23;;;;;;;12.70;4.78;;;31.50;76.50;;;;;;5033461;28;20312;-75
2022/06/20 08:34:14;;;;;;;6.95;4.40;;;31.40;77.70;;;;;;5033220;28;20631;-73
2022/06/20 08:37:06;;;;;;;7.18;4.20;;;31.20;78.60;;;;;;5034324;28;20192;-74
2022/06/20 08:39:47;;;;;;;6.28;3.90;;;31.30;78.10;;;;;;5016937;28;20564;-74
2022/06/20 08:42:34;;;;;;;8.27;4.30;;;31.30;77.80;;;;;;5014801;28;20189;-75
2022/06/20 08:44:59;;;;;;;4.80;3.90;;;31.10;80.20;;;;;;5015075;28;20260;-73
2022/06/20 08:48:10;;;;;;;8.68;4.97;;;31.00;78.10;;;;;;5016769;28;20618;-74
2022/06/20 08:50:54;;;;;;;4.53;3.92;;;30.60;79.10;;;;;;5000203;28;20228;-75
2022/06/20 08:53:49;;;;;;;5.78;3.47;;;30.30;80.00;;;;;;5014372;28;20193;-75
2022/06/20 08:56:33;;;;;;;6.70;3.80;;;30.00;80.20;;;;;;5013964;28;20201;-74
2022/06/20 08:59:06;;;;;;;9.73;4.18;;;30.10;81.00;;;;;;5021028;28;20955;-75
2022/06/20 09:01:40;;;;;;;7.43;3.95;;;30.20;83.20;;;;;;5026390;28;20176;-76
2022/06/20 09:04:10;;;;;;;7.32;3.45;;;30.40;77.70;;;;;;5030280;28;20607;-74
2022/06/20 09:07:05;;;;;;;5.25;3.47;;;30.70;75.60;;;;;;5032426;28;20180;-73
2022/06/20 09:09:56;;;;;;;5.05;3.42;;;31.00;76.70;;;;;;5032042;28;20207;-75
2022/06/20 09:12:34;;;;;;;7.13;3.90;;;31.60;73.10;;;;;;5025876;28;20250;-75
2022/06/20 09:15:46;;;;;;;8.10;3.88;;;31.80;70.50;;;;;;5025920;28;20259;-76
2022/06/20 09:18:53;;;;;;;6.93;3.50;;;32.00;70.60;;;;;;5035295;28;20197;-74
2022/06/20 09:21:37;;;;;;;5.07;3.25;;;32.00;67.80;;;;;;5025165;28;20173;-76
2022/06/20 09:24:57;;;;;;;5.32;3.28;;;31.70;67.60;;;;;;5026484;28;20204;-76
2022/06/20 09:27:34;;;;;;;7.15;3.38;;;31.50;67.10;;;;;;5022726;28;20251;-76
2022/06/20 09:30:18;;;;;;;4.05;2.90;;;31.30;68.30;;;;;;5029117;28;20192;-76
2022/06/20 09:33:23;;;;;;;4.85;3.50;;;31.30;67.30;;;;;;5033537;28;20289;-74
2022/06/20 09:36:17;;;;;;;10.88;3.75;;;31.00;68.90;;;;;;5035204;28;20217;-78
2022/06/20 09:39:16;;;;;;;7.70;3.47;;;31.10;68.30;;;;;;5013093;28;20184;-76
2022/06/20 09:41:51;;;;;;;4.10;3.70;;;31.10;70.30;;;;;;5032866;28;20176;-76
2022/06/20 09:44:30;;;;;;;3.30;3.00;;;31.10;68.80;;;;;;5020271;28;20184;-76
2022/06/20 09:47:32;;;;;;;5.50;3.20;;;31.00;67.80;;;;;;5013872;28;20537;-77
2022/06/20 09:50:22;;;;;;;5.20;3.60;;;30.90;68.70;;;;;;5011165;28;20235;-75
2022/06/20 09:53:01;;;;;;;6.10;3.08;;;30.90;68.10;;;;;;5013657;28;20211;-76
2022/06/20 09:55:50;;;;;;;8.80;3.60;;;31.10;69.20;;;;;;5019334;28;20168;-75
2022/06/20 09:58:53;;;;;;;3.42;3.13;;;31.20;69.90;;;;;;5031961;28;20526;-76
2022/06/20 10:01:50;;;;;;;6.05;3.15;;;31.60;66.30;;;;;;5032366;28;20187;-77
2022/06/20 10:04:27;;;;;;;8.15;3.40;;;32.30;65.60;;;;;;5032841;28;20180;-77
2022/06/20 10:07:01;;;;;;;3.97;3.28;;;32.10;65.80;;;;;;5024298;28;20188;-77
2022/06/20 10:09:34;;;;;;;4.78;2.90;;;32.10;64.70;;;;;;5023252;28;20615;-78
2022/06/20 10:12:20;;;;;;;7.82;3.42;;;32.20;63.20;;;;;;5025026;28;20203;-77
2022/06/20 10:14:49;;;;;;;5.22;3.40;;;31.90;63.80;;;;;;5025479;28;20208;-74
2022/06/20 10:17:49;;;;;;;6.30;2.97;;;31.70;65.20;;;;;;5021627;28;20204;-76
2022/06/20 10:20:33;;;;;;;6.60;3.65;;;31.20;79.10;;;;;;5016261;28;20200;-78
2022/06/20 10:23:28;;;;;;;4.25;3.55;;;30.90;72.20;;;;;;5016759;28;20193;-77
2022/06/20 10:26:24;;;;;;;6.85;4.07;;;30.40;68.40;;;;;;5027343;28;20184;-78
2022/06/20 10:29:24;;;;;;;5.43;3.65;;;30.20;71.00;;;;;;5013475;28;20180;-77
2022/06/20 10:32:23;;;;;;;8.90;4.10;;;30.20;69.20;;;;;;5013335;28;20228;-77
2022/06/20 10:35:14;;;;;;;5.18;3.13;;;30.90;70.50;;;;;;5007049;28;20239;-76
2022/06/20 10:37:51;;;;;;;3.67;3.20;;;33.30;65.90;;;;;;5015441;28;20254;-76
2022/06/20 10:40:32;;;;;;;8.25;3.63;;;34.10;61.70;;;;;;5028161;28;20191;-78
2022/06/20 10:43:15;;;;;;;5.78;3.45;;;34.00;60.20;;;;;;5029999;28;20548;-77
2022/06/20 10:45:59;;;;;;;44.53;7.10;;;34.80;60.80;;;;;;5033916;28;20258;-78
2022/06/20 10:48:31;;;;;;;4.00;3.17;;;36.00;57.60;;;;;;5029068;28;20211;-77
2022/06/20 10:51:25;;;;;;;4.60;3.22;;;36.00;55.30;;;;;;5037648;28;20195;-78
2022/06/20 10:54:16;;;;;;;6.18;3.67;;;36.10;56.20;;;;;;5016268;28;20200;-78
2022/06/20 10:56:59;;;;;;;5.53;3.53;;;37.50;53.50;;;;;;5015751;28;20201;-78
2022/06/20 10:59:56;;;;;;;4.50;3.38;;;38.80;53.70;;;;;;5024188;28;20183;-75
2022/06/20 11:02:45;;;;;;;7.43;3.28;;;40.00;49.80;;;;;;5023761;28;20283;-76
2022/06/20 11:05:36;;;;;;;7.35;3.58;;;40.00;48.50;;;;;;5040250;28;20179;-75
2022/06/20 11:08:29;;;;;;;4.40;3.88;;;39.00;50.60;;;;;;5022774;28;20172;-75
2022/06/20 11:11:21;;;;;;;5.85;3.60;;;39.80;48.40;;;;;;5025697;28;20301;-74
2022/06/20 11:13:46;;;;;;;8.23;3.45;;;40.30;47.60;;;;;;5019974;28;20227;-76
2022/06/20 11:16:43;;;;;;;7.32;3.65;;;40.70;47.50;;;;;;5017494;28;20231;-76
2022/06/20 11:19:48;;;;;;;5.10;3.70;;;41.00;46.30;;;;;;5023069;28;20796;-75
2022/06/20 11:22:34;;;;;;;3.63;3.00;;;41.30;45.90;;;;;;5026552;28;20196;-74
2022/06/20 11:25:33;;;;;;;4.88;2.92;;;41.50;45.30;;;;;;5022806;28;20644;-76
2022/06/20 11:28:30;;;;;;;5.00;3.08;;;41.60;44.70;;;;;;5020221;28;20191;-75
2022/06/20 11:31:18;;;;;;;6.55;3.60;;;40.50;45.70;;;;;;5025668;28;20188;-76
2022/06/20 11:34:15;;;;;;;3.88;3.42;;;39.90;45.80;;;;;;5019884;28;20235;-76
2022/06/20 11:36:54;;;;;;;5.20;3.50;;;39.60;47.10;;;;;;5026993;28;20203;-75
2022/06/20 11:39:33;;;;;;;5.93;3.72;;;40.00;47.70;;;;;;5036552;28;20176;-76
2022/06/20 11:42:25;;;;;;;4.57;3.63;;;40.60;46.40;;;;;;5028354;28;20188;-75
2022/06/20 11:45:12;;;;;;;4.80;3.42;;;41.10;44.50;;;;;;5021558;28;20185;-75
2022/06/20 11:48:25;;;;;;;4.95;3.00;;;41.20;44.80;;;;;;5034403;28;20240;-75
2022/06/20 11:51:09;;;;;;;3.80;3.45;;;39.80;45.70;;;;;;5018834;28;20455;-77
2022/06/20 11:53:54;;;;;;;5.70;3.85;;;39.00;48.20;;;;;;5029592;28;20198;-76
2022/06/20 11:56:46;;;;;;;5.38;3.35;;;38.40;48.60;;;;;;5034202;28;20208;-77
2022/06/20 11:59:47;;;;;;;6.55;3.80;;;37.70;49.30;;;;;;5034659;28;20176;-76
2022/06/20 12:02:46;;;;;;;6.10;3.80;;;37.00;51.00;;;;;;5038843;28;20220;-76
2022/06/20 12:05:18;;;;;;;4.78;4.13;;;37.30;50.80;;;;;;5041466;28;20180;-76
2022/06/20 12:08:23;;;;;;;8.23;4.13;;;37.70;51.30;;;;;;5038127;28;20510;-77
2022/06/20 12:11:00;;;;;;;4.50;3.42;;;38.60;51.70;;;;;;5038764;28;20613;-77
2022/06/20 12:13:50;;;;;;;5.95;3.88;;;39.60;49.90;;;;;;5039307;28;20204;-77
2022/06/20 12:16:40;;;;;;;4.32;3.55;;;40.30;48.40;;;;;;5035151;28;20258;-78
2022/06/20 12:24:50;;;;;;;8.13;3.72;;;42.80;44.40;;;;;;5038032;28;20194;-77
2022/06/20 12:27:19;;;;;;;6.32;4.28;;;42.30;44.80;;;;;;5026900;28;20207;-78
2022/06/20 12:29:47;;;;;;;4.30;3.17;;;41.70;45.60;;;;;;5014344;28;20199;-76
2022/06/20 12:32:19;;;;;;;5.35;3.28;;;41.40;45.80;;;;;;5032803;28;20223;-76
2022/06/20 12:34:56;;;;;;;4.30;3.22;;;41.40;44.80;;;;;;5031148;28;20211;-77
2022/06/20 12:38:04;;;;;;;6.28;3.10;;;41.90;44.10;;;;;;5032680;28;20234;-76
2022/06/20 12:40:36;;;;;;;5.28;2.80;;;42.10;43.40;;;;;;5034057;28;20184;-76
2022/06/20 12:43:19;;;;;;;8.20;3.60;;;42.10;43.50;;;;;;5026809;28;20665;-77
2022/06/20 12:46:16;;;;;;;5.97;2.92;;;42.60;42.70;;;;;;5032709;28;20693;-75
2022/06/20 12:49:23;;;;;;;4.25;3.05;;;41.40;43.60;;;;;;5032976;28;20178;-75
2022/06/20 12:52:08;;;;;;;3.25;3.00;;;40.70;44.80;;;;;;5037648;28;20738;-76
2022/06/20 12:55:01;;;;;;;5.00;2.88;;;42.30;43.10;;;;;;5044342;28;20180;-76
2022/06/20 12:58:00;;;;;;;5.43;3.30;;;43.70;41.20;;;;;;5026951;28;20239;-76
2022/06/20 13:00:50;;;;;;;5.03;3.00;;;44.30;41.30;;;;;;5028226;28;20173;-76
2022/06/20 13:03:31;;;;;;;4.35;3.28;;;43.70;41.60;;;;;;5030416;28;20214;-78
2022/06/20 13:06:36;;;;;;;6.60;3.30;;;45.60;39.40;;;;;;5036614;28;20183;-79
2022/06/20 13:09:10;;;;;;;8.68;3.28;;;47.00;38.40;;;;;;5027821;28;20271;-78
2022/06/20 13:11:42;;;;;;;3.35;3.05;;;48.70;36.90;;;;;;5028264;28;20179;-77
2022/06/20 13:14:08;;;;;;;4.28;3.10;;;49.90;34.90;;;;;;5028176;28;20176;-78
2022/06/20 13:17:02;;;;;;;6.45;2.80;;;50.30;34.40;;;;;;5032076;28;20214;-77
2022/06/20 13:20:04;;;;;;;4.13;3.05;;;50.50;34.20;;;;;;5045346;28;20319;-78
2022/06/20 13:22:54;;;;;;;5.72;2.80;;;51.70;33.80;;;;;;5029762;28;20200;-77
2022/06/20 13:25:43;;;;;;;5.15;3.17;;;52.80;32.60;;;;;;5045108;28;20551;-75
2022/06/20 13:28:37;;;;;;;5.53;3.67;;;49.00;34.30;;;;;;5054214;28;20542;-75
2022/06/20 13:31:18;;;;;;;5.38;3.20;;;45.00;38.40;;;;;;5035147;28;20270;-74
2022/06/20 13:33:57;;;;;;;5.35;3.60;;;42.30;40.60;;;;;;5018505;28;20250;-75
2022/06/20 13:36:28;;;;;;;9.43;3.60;;;39.40;44.50;;;;;;5015092;28;20668;-74
2022/06/20 13:39:17;;;;;;;5.95;3.55;;;37.30;47.10;;;;;;5014830;28;20188;-75
2022/06/20 13:41:49;;;;;;;3.60;2.65;;;35.80;48.70;;;;;;5023002;28;20263;-75
2022/06/20 13:44:43;;;;;;;4.60;2.65;;;34.70;50.40;;;;;;5025892;28;20183;-74
2022/06/20 13:47:31;;;;;;;2.75;2.30;;;33.90;50.70;;;;;;5037040;28;20180;-74
2022/06/20 13:50:25;;;;;;;6.55;2.58;;;33.80;51.60;;;;;;5035846;28;20195;-73
2022/06/20 13:53:08;;;;;;;2.50;2.30;;;35.30;49.70;;;;;;5034443;28;20704;-74